sensor_id;sensor_type;location;lat;lon;timestamp;P1;durP1;ratioP1;P2;durP2;ratioP2
67768;SDS011;54569;52.018;5.584;2022-07-29T00:00:34;3.65;;;1.58;;
67768;SDS011;54569;52.018;5.584;2022-07-29T00:03:00;3.30;;;1.33;;
67768;SDS011;54569;52.018;5.584;2022-07-29T00:05:27;2.75;;;1.52;;
67768;SDS011;54569;52.018;5.584;2022-07-29T00:07:53;4.43;;;1.85;;
67768;SDS011;54569;52.018;5.584;2022-07-29T00:10:19;5.28;;;1.60;;
67768;SDS011;54569;52.018;5.584;2022-07-29T00:12:44;4.63;;;1.50;;
67768;SDS011;54569;52.018;5.584;2022-07-29T00:15:10;2.03;;;1.52;;
67768;SDS011;54569;52.018;5.584;2022-07-29T00:17:36;3.08;;;1.48;;
67768;SDS011;54569;52.018;5.584;2022-07-29T00:20:02;2.00;;;1.20;;
67768;SDS011;54569;52.018;5.584;2022-07-29T00:22:28;1.83;;;1.48;;
67768;SDS011;54569;52.018;5.584;2022-07-29T00:24:54;2.60;;;1.70;;
67768;SDS011;54569;52.018;5.584;2022-07-29T00:27:20;1.70;;;1.27;;
67768;SDS011;54569;52.018;5.584;2022-07-29T00:29:45;2.83;;;1.50;;
67768;SDS011;54569;52.018;5.584;2022-07-29T00:32:11;4.10;;;1.50;;
67768;SDS011;54569;52.018;5.584;2022-07-29T00:34:37;2.17;;;1.50;;
67768;SDS011;54569;52.018;5.584;2022-07-29T00:37:21;2.90;;;1.40;;
67768;SDS011;54569;52.018;5.584;2022-07-29T00:39:47;2.72;;;1.40;;
67768;SDS011;54569;52.018;5.584;2022-07-29T00:42:12;3.53;;;1.40;;
67768;SDS011;54569;52.018;5.584;2022-07-29T00:44:38;1.60;;;1.50;;
67768;SDS011;54569;52.018;5.584;2022-07-29T00:47:05;2.65;;;1.42;;
67768;SDS011;54569;52.018;5.584;2022-07-29T00:49:32;2.45;;;1.50;;
67768;SDS011;54569;52.018;5.584;2022-07-29T00:52:00;4.22;;;2.00;;
67768;SDS011;54569;52.018;5.584;2022-07-29T00:54:27;2.05;;;1.80;;
67768;SDS011;54569;52.018;5.584;2022-07-29T00:56:54;2.88;;;1.70;;
67768;SDS011;54569;52.018;5.584;2022-07-29T00:59:22;4.70;;;1.73;;
67768;SDS011;54569;52.018;5.584;2022-07-29T01:01:48;2.00;;;1.48;;
67768;SDS011;54569;52.018;5.584;2022-07-29T01:04:14;3.25;;;1.60;;
67768;SDS011;54569;52.018;5.584;2022-07-29T01:06:40;2.88;;;1.52;;
67768;SDS011;54569;52.018;5.584;2022-07-29T01:09:06;3.05;;;1.48;;
67768;SDS011;54569;52.018;5.584;2022-07-29T01:11:32;2.22;;;1.83;;
67768;SDS011;54569;52.018;5.584;2022-07-29T01:14:00;2.40;;;1.75;;
67768;SDS011;54569;52.018;5.584;2022-07-29T01:16:30;3.83;;;1.80;;
67768;SDS011;54569;52.018;5.584;2022-07-29T01:19:01;3.05;;;1.80;;
67768;SDS011;54569;52.018;5.584;2022-07-29T01:21:51;1.73;;;1.52;;
67768;SDS011;54569;52.018;5.584;2022-07-29T01:24:32;3.10;;;1.80;;
67768;SDS011;54569;52.018;5.584;2022-07-29T01:27:04;1.95;;;1.48;;
67768;SDS011;54569;52.018;5.584;2022-07-29T01:29:57;2.72;;;1.70;;
67768;SDS011;54569;52.018;5.584;2022-07-29T01:32:25;4.10;;;1.70;;
67768;SDS011;54569;52.018;5.584;2022-07-29T01:35:03;1.42;;;1.30;;
67768;SDS011;54569;52.018;5.584;2022-07-29T01:37:36;2.05;;;1.60;;
67768;SDS011;54569;52.018;5.584;2022-07-29T01:40:09;4.53;;;1.70;;
67768;SDS011;54569;52.018;5.584;2022-07-29T01:42:44;3.33;;;1.52;;
67768;SDS011;54569;52.018;5.584;2022-07-29T01:45:15;2.78;;;1.60;;
67768;SDS011;54569;52.018;5.584;2022-07-29T01:48:02;5.35;;;1.95;;
67768;SDS011;54569;52.018;5.584;2022-07-29T01:50:34;2.10;;;1.55;;
67768;SDS011;54569;52.018;5.584;2022-07-29T01:53:06;2.13;;;1.45;;
67768;SDS011;54569;52.018;5.584;2022-07-29T01:55:36;3.80;;;1.50;;
67768;SDS011;54569;52.018;5.584;2022-07-29T01:58:05;1.83;;;1.55;;
67768;SDS011;54569;52.018;5.584;2022-07-29T02:00:32;3.10;;;1.75;;
67768;SDS011;54569;52.018;5.584;2022-07-29T02:03:00;2.47;;;1.70;;
67768;SDS011;54569;52.018;5.584;2022-07-29T02:05:30;2.63;;;1.60;;
67768;SDS011;54569;52.018;5.584;2022-07-29T02:07:58;3.67;;;1.65;;
67768;SDS011;54569;52.018;5.584;2022-07-29T02:10:26;2.08;;;1.80;;
67768;SDS011;54569;52.018;5.584;2022-07-29T02:12:54;2.08;;;1.42;;
67768;SDS011;54569;52.018;5.584;2022-07-29T02:15:23;1.67;;;1.58;;
67768;SDS011;54569;52.018;5.584;2022-07-29T02:17:54;1.85;;;1.60;;
67768;SDS011;54569;52.018;5.584;2022-07-29T02:20:22;2.58;;;1.55;;
67768;SDS011;54569;52.018;5.584;2022-07-29T02:22:50;3.33;;;1.48;;
67768;SDS011;54569;52.018;5.584;2022-07-29T02:25:20;3.90;;;1.63;;
67768;SDS011;54569;52.018;5.584;2022-07-29T02:27:47;2.22;;;1.90;;
67768;SDS011;54569;52.018;5.584;2022-07-29T02:30:15;1.73;;;1.48;;
67768;SDS011;54569;52.018;5.584;2022-07-29T02:32:42;2.70;;;1.40;;
67768;SDS011;54569;52.018;5.584;2022-07-29T02:35:10;3.15;;;1.75;;
67768;SDS011;54569;52.018;5.584;2022-07-29T02:37:39;2.05;;;1.60;;
67768;SDS011;54569;52.018;5.584;2022-07-29T02:40:08;1.90;;;1.50;;
67768;SDS011;54569;52.018;5.584;2022-07-29T02:42:36;3.00;;;1.80;;
67768;SDS011;54569;52.018;5.584;2022-07-29T02:45:04;2.40;;;1.98;;
67768;SDS011;54569;52.018;5.584;2022-07-29T02:47:32;1.60;;;1.50;;
67768;SDS011;54569;52.018;5.584;2022-07-29T02:50:21;4.18;;;2.00;;
67768;SDS011;54569;52.018;5.584;2022-07-29T02:52:58;3.33;;;1.92;;
67768;SDS011;54569;52.018;5.584;2022-07-29T02:55:32;3.25;;;2.10;;
67768;SDS011;54569;52.018;5.584;2022-07-29T03:00:40;5.40;;;1.75;;
67768;SDS011;54569;52.018;5.584;2022-07-29T03:03:09;3.03;;;1.90;;
67768;SDS011;54569;52.018;5.584;2022-07-29T03:05:38;2.25;;;1.75;;
67768;SDS011;54569;52.018;5.584;2022-07-29T03:08:05;2.08;;;1.60;;
67768;SDS011;54569;52.018;5.584;2022-07-29T03:10:34;2.78;;;2.05;;
67768;SDS011;54569;52.018;5.584;2022-07-29T03:13:01;4.95;;;2.05;;
67768;SDS011;54569;52.018;5.584;2022-07-29T03:15:28;4.35;;;2.10;;
67768;SDS011;54569;52.018;5.584;2022-07-29T03:17:56;3.85;;;2.13;;
67768;SDS011;54569;52.018;5.584;2022-07-29T03:20:24;3.78;;;1.92;;
67768;SDS011;54569;52.018;5.584;2022-07-29T03:22:50;4.22;;;2.00;;
67768;SDS011;54569;52.018;5.584;2022-07-29T03:25:17;3.63;;;1.95;;
67768;SDS011;54569;52.018;5.584;2022-07-29T03:27:44;5.40;;;2.15;;
67768;SDS011;54569;52.018;5.584;2022-07-29T03:30:10;1.80;;;1.70;;
67768;SDS011;54569;52.018;5.584;2022-07-29T03:32:38;4.13;;;2.40;;
67768;SDS011;54569;52.018;5.584;2022-07-29T03:35:04;2.55;;;2.35;;
67768;SDS011;54569;52.018;5.584;2022-07-29T03:37:30;3.70;;;2.10;;
67768;SDS011;54569;52.018;5.584;2022-07-29T03:39:57;2.38;;;2.17;;
67768;SDS011;54569;52.018;5.584;2022-07-29T03:42:24;3.08;;;2.15;;
67768;SDS011;54569;52.018;5.584;2022-07-29T03:44:58;3.17;;;2.45;;
67768;SDS011;54569;52.018;5.584;2022-07-29T03:47:30;6.53;;;2.63;;
67768;SDS011;54569;52.018;5.584;2022-07-29T03:50:00;4.30;;;2.60;;
67768;SDS011;54569;52.018;5.584;2022-07-29T03:52:30;5.85;;;2.85;;
67768;SDS011;54569;52.018;5.584;2022-07-29T03:54:56;3.67;;;2.60;;
67768;SDS011;54569;52.018;5.584;2022-07-29T03:57:23;2.60;;;2.40;;
67768;SDS011;54569;52.018;5.584;2022-07-29T03:59:52;4.65;;;2.40;;
67768;SDS011;54569;52.018;5.584;2022-07-29T04:02:19;4.28;;;2.40;;
67768;SDS011;54569;52.018;5.584;2022-07-29T04:04:45;4.82;;;2.50;;
67768;SDS011;54569;52.018;5.584;2022-07-29T04:07:11;3.30;;;2.40;;
67768;SDS011;54569;52.018;5.584;2022-07-29T04:09:38;4.63;;;2.53;;
67768;SDS011;54569;52.018;5.584;2022-07-29T04:12:04;5.13;;;2.10;;
67768;SDS011;54569;52.018;5.584;2022-07-29T04:14:33;2.20;;;2.00;;
67768;SDS011;54569;52.018;5.584;2022-07-29T04:17:00;4.05;;;2.20;;
67768;SDS011;54569;52.018;5.584;2022-07-29T04:19:27;4.22;;;2.50;;
67768;SDS011;54569;52.018;5.584;2022-07-29T04:21:52;2.92;;;2.50;;
67768;SDS011;54569;52.018;5.584;2022-07-29T04:24:18;2.35;;;2.00;;
67768;SDS011;54569;52.018;5.584;2022-07-29T04:26:45;5.53;;;2.53;;
67768;SDS011;54569;52.018;5.584;2022-07-29T04:29:12;2.40;;;2.20;;
67768;SDS011;54569;52.018;5.584;2022-07-29T04:31:39;4.22;;;2.47;;
67768;SDS011;54569;52.018;5.584;2022-07-29T04:34:08;2.85;;;2.47;;
67768;SDS011;54569;52.018;5.584;2022-07-29T04:36:34;4.05;;;2.38;;
67768;SDS011;54569;52.018;5.584;2022-07-29T04:39:00;4.72;;;2.30;;
67768;SDS011;54569;52.018;5.584;2022-07-29T04:41:27;2.85;;;2.20;;
67768;SDS011;54569;52.018;5.584;2022-07-29T04:43:53;5.70;;;2.40;;
67768;SDS011;54569;52.018;5.584;2022-07-29T04:46:18;3.65;;;2.42;;
67768;SDS011;54569;52.018;5.584;2022-07-29T04:48:47;5.63;;;2.30;;
67768;SDS011;54569;52.018;5.584;2022-07-29T04:51:13;4.57;;;2.63;;
67768;SDS011;54569;52.018;5.584;2022-07-29T04:53:40;3.28;;;2.17;;
67768;SDS011;54569;52.018;5.584;2022-07-29T04:56:06;3.83;;;2.38;;
67768;SDS011;54569;52.018;5.584;2022-07-29T04:58:33;6.75;;;2.15;;
67768;SDS011;54569;52.018;5.584;2022-07-29T05:01:00;3.28;;;2.45;;
67768;SDS011;54569;52.018;5.584;2022-07-29T05:03:25;2.20;;;1.95;;
67768;SDS011;54569;52.018;5.584;2022-07-29T05:05:51;2.22;;;2.03;;
67768;SDS011;54569;52.018;5.584;2022-07-29T05:08:16;5.55;;;2.35;;
67768;SDS011;54569;52.018;5.584;2022-07-29T05:10:42;2.50;;;2.25;;
67768;SDS011;54569;52.018;5.584;2022-07-29T05:13:08;3.10;;;2.40;;
67768;SDS011;54569;52.018;5.584;2022-07-29T05:15:34;3.00;;;2.25;;
67768;SDS011;54569;52.018;5.584;2022-07-29T05:18:00;2.88;;;2.20;;
67768;SDS011;54569;52.018;5.584;2022-07-29T05:20:26;2.72;;;1.90;;
67768;SDS011;54569;52.018;5.584;2022-07-29T05:22:57;6.20;;;2.45;;
67768;SDS011;54569;52.018;5.584;2022-07-29T05:25:24;3.95;;;2.45;;
67768;SDS011;54569;52.018;5.584;2022-07-29T05:27:50;4.05;;;2.33;;
67768;SDS011;54569;52.018;5.584;2022-07-29T05:30:16;2.85;;;2.30;;
67768;SDS011;54569;52.018;5.584;2022-07-29T05:32:43;4.47;;;2.50;;
67768;SDS011;54569;52.018;5.584;2022-07-29T05:35:08;3.85;;;2.17;;
67768;SDS011;54569;52.018;5.584;2022-07-29T05:37:34;4.55;;;2.10;;
67768;SDS011;54569;52.018;5.584;2022-07-29T05:40:00;5.95;;;2.17;;
67768;SDS011;54569;52.018;5.584;2022-07-29T05:42:26;2.75;;;2.40;;
67768;SDS011;54569;52.018;5.584;2022-07-29T05:44:52;5.78;;;2.40;;
67768;SDS011;54569;52.018;5.584;2022-07-29T05:47:18;5.70;;;2.20;;
67768;SDS011;54569;52.018;5.584;2022-07-29T05:49:43;4.57;;;2.25;;
67768;SDS011;54569;52.018;5.584;2022-07-29T05:52:09;3.92;;;2.28;;
67768;SDS011;54569;52.018;5.584;2022-07-29T05:54:35;2.85;;;2.33;;
67768;SDS011;54569;52.018;5.584;2022-07-29T05:57:02;5.28;;;2.55;;
67768;SDS011;54569;52.018;5.584;2022-07-29T05:59:28;4.35;;;2.28;;
67768;SDS011;54569;52.018;5.584;2022-07-29T06:01:54;3.92;;;2.35;;
67768;SDS011;54569;52.018;5.584;2022-07-29T06:04:19;5.05;;;2.42;;
67768;SDS011;54569;52.018;5.584;2022-07-29T06:06:45;5.78;;;2.47;;
67768;SDS011;54569;52.018;5.584;2022-07-29T06:09:11;4.35;;;2.85;;
67768;SDS011;54569;52.018;5.584;2022-07-29T06:11:37;3.72;;;2.60;;
67768;SDS011;54569;52.018;5.584;2022-07-29T06:14:02;3.88;;;2.58;;
67768;SDS011;54569;52.018;5.584;2022-07-29T06:16:28;2.65;;;2.33;;
67768;SDS011;54569;52.018;5.584;2022-07-29T06:18:54;4.30;;;2.50;;
67768;SDS011;54569;52.018;5.584;2022-07-29T06:21:20;5.20;;;2.72;;
67768;SDS011;54569;52.018;5.584;2022-07-29T06:23:45;3.25;;;2.92;;
67768;SDS011;54569;52.018;5.584;2022-07-29T06:26:11;2.95;;;2.33;;
67768;SDS011;54569;52.018;5.584;2022-07-29T06:28:36;4.22;;;2.38;;
67768;SDS011;54569;52.018;5.584;2022-07-29T06:31:02;4.00;;;2.42;;
67768;SDS011;54569;52.018;5.584;2022-07-29T06:33:28;3.85;;;2.50;;
67768;SDS011;54569;52.018;5.584;2022-07-29T06:35:54;3.80;;;2.58;;
67768;SDS011;54569;52.018;5.584;2022-07-29T06:38:20;3.25;;;2.42;;
67768;SDS011;54569;52.018;5.584;2022-07-29T06:40:45;4.70;;;2.60;;
67768;SDS011;54569;52.018;5.584;2022-07-29T06:43:34;3.97;;;2.70;;
67768;SDS011;54569;52.018;5.584;2022-07-29T06:46:06;4.05;;;2.67;;
67768;SDS011;54569;52.018;5.584;2022-07-29T06:48:34;4.95;;;2.50;;
67768;SDS011;54569;52.018;5.584;2022-07-29T06:51:01;3.55;;;2.75;;
67768;SDS011;54569;52.018;5.584;2022-07-29T06:53:28;4.30;;;2.38;;
67768;SDS011;54569;52.018;5.584;2022-07-29T06:55:54;2.53;;;2.33;;
67768;SDS011;54569;52.018;5.584;2022-07-29T06:58:20;4.63;;;2.60;;
67768;SDS011;54569;52.018;5.584;2022-07-29T07:00:53;4.97;;;2.92;;
67768;SDS011;54569;52.018;5.584;2022-07-29T07:03:20;4.55;;;2.90;;
67768;SDS011;54569;52.018;5.584;2022-07-29T07:05:46;3.35;;;2.33;;
67768;SDS011;54569;52.018;5.584;2022-07-29T07:08:12;2.92;;;2.65;;
67768;SDS011;54569;52.018;5.584;2022-07-29T07:10:38;3.80;;;2.60;;
67768;SDS011;54569;52.018;5.584;2022-07-29T07:13:05;3.10;;;2.80;;
67768;SDS011;54569;52.018;5.584;2022-07-29T07:15:31;4.30;;;2.97;;
67768;SDS011;54569;52.018;5.584;2022-07-29T07:17:57;3.80;;;3.05;;
67768;SDS011;54569;52.018;5.584;2022-07-29T07:20:23;3.20;;;2.72;;
67768;SDS011;54569;52.018;5.584;2022-07-29T07:22:49;3.13;;;2.67;;
67768;SDS011;54569;52.018;5.584;2022-07-29T07:25:15;3.45;;;2.70;;
67768;SDS011;54569;52.018;5.584;2022-07-29T07:27:42;6.70;;;3.30;;
67768;SDS011;54569;52.018;5.584;2022-07-29T07:30:09;4.10;;;2.97;;
67768;SDS011;54569;52.018;5.584;2022-07-29T07:32:35;3.95;;;3.20;;
67768;SDS011;54569;52.018;5.584;2022-07-29T07:35:01;3.22;;;2.92;;
67768;SDS011;54569;52.018;5.584;2022-07-29T07:37:28;6.07;;;3.00;;
67768;SDS011;54569;52.018;5.584;2022-07-29T07:39:54;5.60;;;2.80;;
67768;SDS011;54569;52.018;5.584;2022-07-29T07:42:19;6.25;;;3.03;;
67768;SDS011;54569;52.018;5.584;2022-07-29T07:44:48;4.35;;;2.75;;
67768;SDS011;54569;52.018;5.584;2022-07-29T07:47:17;3.20;;;2.60;;
67768;SDS011;54569;52.018;5.584;2022-07-29T07:49:45;4.95;;;2.80;;
67768;SDS011;54569;52.018;5.584;2022-07-29T07:52:12;5.03;;;2.67;;
67768;SDS011;54569;52.018;5.584;2022-07-29T07:54:38;5.35;;;2.72;;
67768;SDS011;54569;52.018;5.584;2022-07-29T07:57:04;5.20;;;3.40;;
67768;SDS011;54569;52.018;5.584;2022-07-29T07:59:29;4.93;;;3.38;;
67768;SDS011;54569;52.018;5.584;2022-07-29T08:01:55;5.95;;;3.35;;
67768;SDS011;54569;52.018;5.584;2022-07-29T08:04:21;5.43;;;3.10;;
67768;SDS011;54569;52.018;5.584;2022-07-29T08:06:47;4.35;;;3.05;;
67768;SDS011;54569;52.018;5.584;2022-07-29T08:09:14;3.20;;;2.90;;
67768;SDS011;54569;52.018;5.584;2022-07-29T08:11:40;7.50;;;3.38;;
67768;SDS011;54569;52.018;5.584;2022-07-29T08:14:06;8.85;;;3.00;;
67768;SDS011;54569;52.018;5.584;2022-07-29T08:16:31;6.07;;;3.45;;
67768;SDS011;54569;52.018;5.584;2022-07-29T08:18:57;6.72;;;3.22;;
67768;SDS011;54569;52.018;5.584;2022-07-29T08:21:23;6.20;;;3.20;;
67768;SDS011;54569;52.018;5.584;2022-07-29T08:23:51;5.32;;;2.83;;
67768;SDS011;54569;52.018;5.584;2022-07-29T08:26:40;4.07;;;3.10;;
67768;SDS011;54569;52.018;5.584;2022-07-29T08:29:09;5.95;;;3.15;;
67768;SDS011;54569;52.018;5.584;2022-07-29T08:31:36;5.65;;;3.42;;
67768;SDS011;54569;52.018;5.584;2022-07-29T08:34:03;3.90;;;3.17;;
67768;SDS011;54569;52.018;5.584;2022-07-29T08:36:29;3.50;;;3.20;;
67768;SDS011;54569;52.018;5.584;2022-07-29T08:38:55;4.18;;;3.47;;
67768;SDS011;54569;52.018;5.584;2022-07-29T08:41:21;6.40;;;3.08;;
67768;SDS011;54569;52.018;5.584;2022-07-29T08:43:48;6.53;;;3.58;;
67768;SDS011;54569;52.018;5.584;2022-07-29T08:46:18;8.90;;;3.20;;
67768;SDS011;54569;52.018;5.584;2022-07-29T08:48:45;3.72;;;3.05;;
67768;SDS011;54569;52.018;5.584;2022-07-29T08:51:14;4.50;;;3.53;;
67768;SDS011;54569;52.018;5.584;2022-07-29T08:53:42;5.50;;;3.90;;
67768;SDS011;54569;52.018;5.584;2022-07-29T08:56:12;6.28;;;3.83;;
67768;SDS011;54569;52.018;5.584;2022-07-29T08:58:38;4.35;;;4.05;;
67768;SDS011;54569;52.018;5.584;2022-07-29T09:01:05;5.60;;;3.40;;
67768;SDS011;54569;52.018;5.584;2022-07-29T09:03:32;4.80;;;3.55;;
67768;SDS011;54569;52.018;5.584;2022-07-29T09:06:03;4.60;;;3.42;;
67768;SDS011;54569;52.018;5.584;2022-07-29T09:08:30;3.95;;;3.42;;
67768;SDS011;54569;52.018;5.584;2022-07-29T09:10:57;4.05;;;3.40;;
67768;SDS011;54569;52.018;5.584;2022-07-29T09:13:26;7.85;;;3.50;;
67768;SDS011;54569;52.018;5.584;2022-07-29T09:15:51;6.28;;;3.38;;
67768;SDS011;54569;52.018;5.584;2022-07-29T09:21:16;4.45;;;3.10;;
67768;SDS011;54569;52.018;5.584;2022-07-29T09:24:02;6.43;;;3.10;;
67768;SDS011;54569;52.018;5.584;2022-07-29T09:26:37;4.07;;;3.05;;
67768;SDS011;54569;52.018;5.584;2022-07-29T09:29:08;3.67;;;3.35;;
67768;SDS011;54569;52.018;5.584;2022-07-29T09:31:36;8.00;;;3.15;;
67768;SDS011;54569;52.018;5.584;2022-07-29T09:34:03;6.93;;;3.13;;
67768;SDS011;54569;52.018;5.584;2022-07-29T09:36:29;6.05;;;3.33;;
67768;SDS011;54569;52.018;5.584;2022-07-29T09:39:02;6.70;;;3.85;;
67768;SDS011;54569;52.018;5.584;2022-07-29T09:41:28;4.78;;;3.30;;
67768;SDS011;54569;52.018;5.584;2022-07-29T09:43:58;4.50;;;3.50;;
67768;SDS011;54569;52.018;5.584;2022-07-29T09:46:25;4.70;;;3.33;;
67768;SDS011;54569;52.018;5.584;2022-07-29T09:49:10;4.97;;;3.03;;
67768;SDS011;54569;52.018;5.584;2022-07-29T09:51:37;4.50;;;3.42;;
67768;SDS011;54569;52.018;5.584;2022-07-29T09:54:22;5.50;;;2.88;;
67768;SDS011;54569;52.018;5.584;2022-07-29T09:56:49;4.80;;;3.30;;
67768;SDS011;54569;52.018;5.584;2022-07-29T09:59:15;6.15;;;3.42;;
67768;SDS011;54569;52.018;5.584;2022-07-29T10:01:41;3.22;;;2.90;;
67768;SDS011;54569;52.018;5.584;2022-07-29T10:04:07;7.80;;;2.95;;
67768;SDS011;54569;52.018;5.584;2022-07-29T10:06:32;3.58;;;3.17;;
67768;SDS011;54569;52.018;5.584;2022-07-29T10:09:08;5.45;;;3.13;;
67768;SDS011;54569;52.018;5.584;2022-07-29T10:11:34;4.18;;;3.20;;
67768;SDS011;54569;52.018;5.584;2022-07-29T10:14:01;7.90;;;2.90;;
67768;SDS011;54569;52.018;5.584;2022-07-29T10:16:28;5.53;;;3.13;;
67768;SDS011;54569;52.018;5.584;2022-07-29T10:19:00;4.80;;;2.90;;
67768;SDS011;54569;52.018;5.584;2022-07-29T10:21:26;6.50;;;3.33;;
67768;SDS011;54569;52.018;5.584;2022-07-29T10:23:53;4.45;;;2.90;;
67768;SDS011;54569;52.018;5.584;2022-07-29T10:26:19;4.30;;;2.88;;
67768;SDS011;54569;52.018;5.584;2022-07-29T10:28:45;5.30;;;3.10;;
67768;SDS011;54569;52.018;5.584;2022-07-29T10:31:13;5.55;;;3.08;;
67768;SDS011;54569;52.018;5.584;2022-07-29T10:33:51;7.90;;;2.78;;
67768;SDS011;54569;52.018;5.584;2022-07-29T10:39:27;9.75;;;3.20;;
67768;SDS011;54569;52.018;5.584;2022-07-29T10:42:09;10.23;;;2.85;;
67768;SDS011;54569;52.018;5.584;2022-07-29T10:44:46;5.85;;;2.97;;
67768;SDS011;54569;52.018;5.584;2022-07-29T10:47:19;5.78;;;3.05;;
67768;SDS011;54569;52.018;5.584;2022-07-29T10:49:59;8.77;;;2.90;;
67768;SDS011;54569;52.018;5.584;2022-07-29T10:53:11;3.78;;;3.15;;
67768;SDS011;54569;52.018;5.584;2022-07-29T10:58:22;3.00;;;2.45;;
67768;SDS011;54569;52.018;5.584;2022-07-29T11:00:51;6.65;;;3.40;;
67768;SDS011;54569;52.018;5.584;2022-07-29T11:06:07;4.72;;;2.80;;
67768;SDS011;54569;52.018;5.584;2022-07-29T11:08:33;5.78;;;3.63;;
67768;SDS011;54569;52.018;5.584;2022-07-29T11:13:50;3.67;;;2.88;;
67768;SDS011;54569;52.018;5.584;2022-07-29T11:16:17;7.68;;;3.05;;
67768;SDS011;54569;52.018;5.584;2022-07-29T11:21:41;6.25;;;2.97;;
67768;SDS011;54569;52.018;5.584;2022-07-29T11:24:15;5.00;;;2.53;;
67768;SDS011;54569;52.018;5.584;2022-07-29T11:27:05;4.28;;;2.97;;
67768;SDS011;54569;52.018;5.584;2022-07-29T11:29:31;5.30;;;3.08;;
67768;SDS011;54569;52.018;5.584;2022-07-29T11:32:07;4.47;;;2.38;;
67768;SDS011;54569;52.018;5.584;2022-07-29T11:34:39;4.07;;;2.90;;
67768;SDS011;54569;52.018;5.584;2022-07-29T11:39:35;3.85;;;2.33;;
67768;SDS011;54569;52.018;5.584;2022-07-29T11:45:02;3.80;;;2.78;;
67768;SDS011;54569;52.018;5.584;2022-07-29T11:47:59;4.47;;;3.03;;
67768;SDS011;54569;52.018;5.584;2022-07-29T11:50:36;4.18;;;2.58;;
67768;SDS011;54569;52.018;5.584;2022-07-29T11:53:03;4.60;;;2.92;;
67768;SDS011;54569;52.018;5.584;2022-07-29T11:55:36;4.47;;;2.28;;
67768;SDS011;54569;52.018;5.584;2022-07-29T11:58:03;3.85;;;2.53;;
67768;SDS011;54569;52.018;5.584;2022-07-29T12:00:32;6.38;;;2.70;;
67768;SDS011;54569;52.018;5.584;2022-07-29T12:03:10;3.92;;;2.88;;
67768;SDS011;54569;52.018;5.584;2022-07-29T12:05:43;2.85;;;2.30;;
67768;SDS011;54569;52.018;5.584;2022-07-29T12:08:16;5.15;;;2.33;;
67768;SDS011;54569;52.018;5.584;2022-07-29T12:10:45;4.68;;;2.28;;
67768;SDS011;54569;52.018;5.584;2022-07-29T12:13:12;3.83;;;2.22;;
67768;SDS011;54569;52.018;5.584;2022-07-29T12:15:39;5.60;;;2.47;;
67768;SDS011;54569;52.018;5.584;2022-07-29T12:18:09;2.65;;;1.95;;
67768;SDS011;54569;52.018;5.584;2022-07-29T12:20:39;6.38;;;2.83;;
67768;SDS011;54569;52.018;5.584;2022-07-29T12:23:06;3.75;;;2.20;;
67768;SDS011;54569;52.018;5.584;2022-07-29T12:25:40;4.80;;;2.53;;
67768;SDS011;54569;52.018;5.584;2022-07-29T12:28:07;5.15;;;2.35;;
67768;SDS011;54569;52.018;5.584;2022-07-29T12:30:39;3.83;;;2.35;;
67768;SDS011;54569;52.018;5.584;2022-07-29T12:35:57;3.72;;;2.45;;
67768;SDS011;54569;52.018;5.584;2022-07-29T12:38:25;5.38;;;2.70;;
67768;SDS011;54569;52.018;5.584;2022-07-29T12:40:52;4.15;;;2.63;;
67768;SDS011;54569;52.018;5.584;2022-07-29T12:43:20;3.70;;;2.42;;
67768;SDS011;54569;52.018;5.584;2022-07-29T12:45:55;4.88;;;2.47;;
67768;SDS011;54569;52.018;5.584;2022-07-29T12:51:00;6.15;;;2.80;;
67768;SDS011;54569;52.018;5.584;2022-07-29T12:53:27;4.47;;;2.75;;
67768;SDS011;54569;52.018;5.584;2022-07-29T12:55:54;7.07;;;3.20;;
67768;SDS011;54569;52.018;5.584;2022-07-29T13:03:25;3.40;;;2.35;;
67768;SDS011;54569;52.018;5.584;2022-07-29T13:05:51;3.42;;;2.72;;
67768;SDS011;54569;52.018;5.584;2022-07-29T13:08:17;6.10;;;3.47;;
67768;SDS011;54569;52.018;5.584;2022-07-29T13:10:46;3.60;;;2.70;;
67768;SDS011;54569;52.018;5.584;2022-07-29T13:13:12;8.35;;;2.80;;
67768;SDS011;54569;52.018;5.584;2022-07-29T13:15:43;7.30;;;3.00;;
67768;SDS011;54569;52.018;5.584;2022-07-29T13:20:58;6.07;;;3.35;;
67768;SDS011;54569;52.018;5.584;2022-07-29T13:23:36;4.97;;;2.65;;
67768;SDS011;54569;52.018;5.584;2022-07-29T13:26:08;5.70;;;2.38;;
67768;SDS011;54569;52.018;5.584;2022-07-29T13:28:36;3.55;;;2.75;;
67768;SDS011;54569;52.018;5.584;2022-07-29T13:31:02;6.65;;;3.30;;
67768;SDS011;54569;52.018;5.584;2022-07-29T13:33:28;5.55;;;2.85;;
67768;SDS011;54569;52.018;5.584;2022-07-29T13:35:55;4.63;;;2.63;;
67768;SDS011;54569;52.018;5.584;2022-07-29T13:38:20;4.18;;;2.47;;
67768;SDS011;54569;52.018;5.584;2022-07-29T13:40:46;5.70;;;3.22;;
67768;SDS011;54569;52.018;5.584;2022-07-29T13:43:12;5.57;;;3.20;;
67768;SDS011;54569;52.018;5.584;2022-07-29T13:45:38;5.20;;;2.65;;
67768;SDS011;54569;52.018;5.584;2022-07-29T13:48:04;6.60;;;2.67;;
67768;SDS011;54569;52.018;5.584;2022-07-29T13:50:31;5.75;;;2.47;;
67768;SDS011;54569;52.018;5.584;2022-07-29T13:52:57;5.25;;;2.47;;
67768;SDS011;54569;52.018;5.584;2022-07-29T13:55:23;4.22;;;2.83;;
67768;SDS011;54569;52.018;5.584;2022-07-29T13:57:49;6.18;;;2.78;;
67768;SDS011;54569;52.018;5.584;2022-07-29T14:00:15;5.63;;;2.65;;
67768;SDS011;54569;52.018;5.584;2022-07-29T14:02:44;2.63;;;2.22;;
67768;SDS011;54569;52.018;5.584;2022-07-29T14:05:10;5.18;;;2.80;;
67768;SDS011;54569;52.018;5.584;2022-07-29T14:07:36;5.15;;;3.22;;
67768;SDS011;54569;52.018;5.584;2022-07-29T14:10:04;4.40;;;2.58;;
67768;SDS011;54569;52.018;5.584;2022-07-29T14:12:30;5.90;;;2.88;;
67768;SDS011;54569;52.018;5.584;2022-07-29T14:14:56;5.65;;;2.60;;
67768;SDS011;54569;52.018;5.584;2022-07-29T14:17:21;3.33;;;2.00;;
67768;SDS011;54569;52.018;5.584;2022-07-29T14:19:47;10.27;;;2.72;;
67768;SDS011;54569;52.018;5.584;2022-07-29T14:22:13;5.45;;;2.33;;
67768;SDS011;54569;52.018;5.584;2022-07-29T14:24:39;3.25;;;2.70;;
67768;SDS011;54569;52.018;5.584;2022-07-29T14:27:05;5.65;;;2.38;;
67768;SDS011;54569;52.018;5.584;2022-07-29T14:29:32;4.63;;;2.20;;
67768;SDS011;54569;52.018;5.584;2022-07-29T14:31:58;6.30;;;2.75;;
67768;SDS011;54569;52.018;5.584;2022-07-29T14:34:24;3.72;;;2.22;;
67768;SDS011;54569;52.018;5.584;2022-07-29T14:36:50;3.70;;;2.50;;
67768;SDS011;54569;52.018;5.584;2022-07-29T14:39:15;3.45;;;2.20;;
67768;SDS011;54569;52.018;5.584;2022-07-29T14:41:41;3.78;;;2.33;;
67768;SDS011;54569;52.018;5.584;2022-07-29T14:44:08;6.82;;;2.80;;
67768;SDS011;54569;52.018;5.584;2022-07-29T14:46:34;3.90;;;2.47;;
67768;SDS011;54569;52.018;5.584;2022-07-29T14:49:00;5.40;;;2.20;;
67768;SDS011;54569;52.018;5.584;2022-07-29T14:51:25;4.45;;;2.28;;
67768;SDS011;54569;52.018;5.584;2022-07-29T14:53:51;4.15;;;2.20;;
67768;SDS011;54569;52.018;5.584;2022-07-29T14:56:17;3.30;;;1.98;;
67768;SDS011;54569;52.018;5.584;2022-07-29T14:58:42;6.22;;;1.80;;
67768;SDS011;54569;52.018;5.584;2022-07-29T15:01:08;4.15;;;2.13;;
67768;SDS011;54569;52.018;5.584;2022-07-29T15:03:34;2.80;;;1.77;;
67768;SDS011;54569;52.018;5.584;2022-07-29T15:05:59;5.13;;;2.08;;
67768;SDS011;54569;52.018;5.584;2022-07-29T15:08:25;3.10;;;1.90;;
67768;SDS011;54569;52.018;5.584;2022-07-29T15:10:53;3.20;;;2.10;;
67768;SDS011;54569;52.018;5.584;2022-07-29T15:13:24;6.70;;;1.88;;
67768;SDS011;54569;52.018;5.584;2022-07-29T15:15:50;4.60;;;1.88;;
67768;SDS011;54569;52.018;5.584;2022-07-29T15:18:16;3.10;;;2.00;;
67768;SDS011;54569;52.018;5.584;2022-07-29T15:20:42;3.70;;;2.33;;
67768;SDS011;54569;52.018;5.584;2022-07-29T15:23:10;6.93;;;2.50;;
67768;SDS011;54569;52.018;5.584;2022-07-29T15:25:37;3.30;;;1.88;;
67768;SDS011;54569;52.018;5.584;2022-07-29T15:28:04;6.50;;;2.20;;
67768;SDS011;54569;52.018;5.584;2022-07-29T15:30:32;4.40;;;2.08;;
67768;SDS011;54569;52.018;5.584;2022-07-29T15:33:02;3.50;;;1.90;;